Time;durP1;ratioP1;P1;durP2;ratioP2;P2;SDS_P1;SDS_P2;PMS_P1;PMS_P2;Temp;Humidity;BMP_temperature;BMP_pressure;BME280_temperature;BME280_humidity;BME280_pressure;Samples;Min_cycle;Max_cycle;Signal;HPM_P1;HPM_P2
2021/10/30 00:01:02;;;;;;;28.20;20.88;;;;;;;;;;2071468;28;20022;-73
2021/10/30 00:02:21;;;;;;;29.52;21.00;;;;;;;;;;2073496;28;20447;-75
2021/10/30 00:03:40;;;;;;;31.20;22.05;;;;;;;;;;2072791;28;20049;-74
2021/10/30 00:04:59;;;;;;;29.02;21.27;;;;;;;;;;2073653;28;20065;-75
2021/10/30 00:06:18;;;;;;;27.08;21.30;;;;;;;;;;2071678;28;20030;-74
2021/10/30 00:07:37;;;;;;;30.20;22.15;;;;;;;;;;2073088;28;20038;-74
2021/10/30 00:08:56;;;;;;;28.10;21.48;;;;;;;;;;2070646;28;20061;-75
2021/10/30 00:10:15;;;;;;;32.25;22.08;;;;;;;;;;2071806;28;20049;-75
2021/10/30 00:11:34;;;;;;;31.17;21.40;;;;;;;;;;2070430;28;20030;-75
2021/10/30 00:12:53;;;;;;;28.42;21.10;;;;;;;;;;2072541;28;20038;-76
2021/10/30 00:14:12;;;;;;;29.40;21.15;;;;;;;;;;2071601;28;20037;-75
2021/10/30 00:15:31;;;;;;;26.83;21.83;;;;;;;;;;2073066;28;20070;-75
2021/10/30 00:16:50;;;;;;;28.25;21.50;;;;;;;;;;2077488;28;20386;-75
2021/10/30 00:18:09;;;;;;;26.55;21.20;;;;;;;;;;2076897;28;20030;-75
2021/10/30 00:19:27;;;;;;;31.95;23.45;;;;;;;;;;2069071;28;20097;-77
2021/10/30 00:20:46;;;;;;;30.63;22.60;;;;;;;;;;2070774;28;20022;-75
2021/10/30 00:22:05;;;;;;;32.20;23.25;;;;;;;;;;2070032;28;20030;-75
2021/10/30 00:23:24;;;;;;;30.30;21.10;;;;;;;;;;2072010;28;20025;-75
2021/10/30 00:24:43;;;;;;;31.90;23.40;;;;;;;;;;2076249;28;20116;-75
2021/10/30 00:26:02;;;;;;;30.88;22.90;;;;;;;;;;2072318;28;20034;-75
2021/10/30 00:27:21;;;;;;;28.02;22.20;;;;;;;;;;2072288;28;20026;-75
2021/10/30 00:28:40;;;;;;;30.95;22.70;;;;;;;;;;2070462;28;20049;-75
2021/10/30 00:29:59;;;;;;;31.70;22.60;;;;;;;;;;2069320;28;20026;-75
2021/10/30 00:31:17;;;;;;;30.15;22.23;;;;;;;;;;2070621;28;20018;-75
2021/10/30 00:32:36;;;;;;;30.73;22.10;;;;;;;;;;2071791;28;20050;-74
2021/10/30 00:33:55;;;;;;;32.85;22.90;;;;;;;;;;2073150;28;20022;-74
2021/10/30 00:35:14;;;;;;;28.83;21.73;;;;;;;;;;2071685;28;20026;-75
2021/10/30 00:36:33;;;;;;;30.90;22.95;;;;;;;;;;2081067;28;20029;-75
2021/10/30 00:37:52;;;;;;;33.15;24.10;;;;;;;;;;2075177;28;20021;-74
2021/10/30 00:39:11;;;;;;;28.48;21.95;;;;;;;;;;2072441;28;20030;-74
2021/10/30 00:40:30;;;;;;;30.55;22.48;;;;;;;;;;2072215;28;20033;-75
2021/10/30 00:41:49;;;;;;;31.38;23.75;;;;;;;;;;2071685;28;20030;-75
2021/10/30 00:43:08;;;;;;;31.65;23.52;;;;;;;;;;2070692;28;20490;-75
2021/10/30 00:44:27;;;;;;;30.63;22.52;;;;;;;;;;2072326;28;20033;-75
2021/10/30 00:45:46;;;;;;;31.98;23.52;;;;;;;;;;2071822;28;20029;-75
2021/10/30 00:47:05;;;;;;;29.92;23.15;;;;;;;;;;2072548;28;20041;-75
2021/10/30 00:48:24;;;;;;;30.20;22.92;;;;;;;;;;2072758;28;20548;-75
2021/10/30 00:49:43;;;;;;;34.35;23.70;;;;;;;;;;2072107;28;20490;-74
2021/10/30 00:51:03;;;;;;;30.58;22.73;;;;;;;;;;2072578;28;20034;-75
2021/10/30 00:52:22;;;;;;;34.92;23.02;;;;;;;;;;2071403;28;20438;-75
2021/10/30 00:53:42;;;;;;;30.15;23.80;;;;;;;;;;2069471;28;20109;-76
2021/10/30 00:55:02;;;;;;;34.28;23.92;;;;;;;;;;2068647;28;20022;-75
2021/10/30 00:56:21;;;;;;;33.03;24.15;;;;;;;;;;2072056;28;20033;-76
2021/10/30 00:57:41;;;;;;;32.78;23.92;;;;;;;;;;2070343;28;20029;-76
2021/10/30 00:59:01;;;;;;;31.10;23.25;;;;;;;;;;2069126;28;20018;-75
2021/10/30 01:00:20;;;;;;;32.30;23.00;;;;;;;;;;2079367;28;20026;-76
2021/10/30 01:01:39;;;;;;;30.95;22.77;;;;;;;;;;2075202;28;20029;-74
2021/10/30 01:02:59;;;;;;;30.55;22.88;;;;;;;;;;2071449;28;20042;-76
2021/10/30 01:04:18;;;;;;;32.35;22.27;;;;;;;;;;2069411;28;20402;-75
2021/10/30 01:05:37;;;;;;;31.40;22.88;;;;;;;;;;2072671;28;20042;-76
2021/10/30 01:06:58;;;;;;;33.95;23.30;;;;;;;;;;2071239;28;20466;-75
2021/10/30 01:08:18;;;;;;;32.83;22.08;;;;;;;;;;2072041;28;20060;-75
2021/10/30 01:09:37;;;;;;;32.08;23.40;;;;;;;;;;2071359;28;20061;-76
2021/10/30 01:10:56;;;;;;;31.90;22.48;;;;;;;;;;2073408;28;20141;-76
2021/10/30 01:12:16;;;;;;;30.58;22.65;;;;;;;;;;2073095;28;20037;-76
2021/10/30 01:13:35;;;;;;;31.70;22.55;;;;;;;;;;2070802;28;20022;-75
2021/10/30 01:14:54;;;;;;;30.73;22.88;;;;;;;;;;2071841;28;20022;-76
2021/10/30 01:16:14;;;;;;;33.38;23.17;;;;;;;;;;2072548;28;20021;-75
2021/10/30 01:17:33;;;;;;;28.95;20.70;;;;;;;;;;2071743;28;20033;-77
2021/10/30 01:18:52;;;;;;;30.20;21.65;;;;;;;;;;2072791;28;20026;-75
2021/10/30 01:20:21;;;;;;;29.25;21.45;;;;;;;;;;2072121;28;20179;-74
2021/10/30 01:21:40;;;;;;;25.45;20.77;;;;;;;;;;2073223;28;20112;-75
2021/10/30 01:23:00;;;;;;;28.52;21.10;;;;;;;;;;2069934;28;20022;-74
2021/10/30 01:24:19;;;;;;;29.00;20.85;;;;;;;;;;2071915;28;20405;-75
2021/10/30 01:25:38;;;;;;;26.52;20.17;;;;;;;;;;2071848;28;20034;-74
2021/10/30 01:26:57;;;;;;;26.48;20.80;;;;;;;;;;2072727;28;20073;-75
2021/10/30 01:28:16;;;;;;;27.20;20.00;;;;;;;;;;2072208;28;20090;-75
2021/10/30 01:29:35;;;;;;;26.35;20.60;;;;;;;;;;2070668;28;20033;-75
2021/10/30 01:30:54;;;;;;;24.45;19.35;;;;;;;;;;2070018;28;20094;-75
2021/10/30 01:32:14;;;;;;;29.30;19.35;;;;;;;;;;2067853;28;20034;-75
2021/10/30 01:33:33;;;;;;;25.60;19.77;;;;;;;;;;2069123;28;20034;-76
2021/10/30 01:34:52;;;;;;;24.05;19.45;;;;;;;;;;2067866;28;20023;-75
2021/10/30 01:36:12;;;;;;;23.85;18.73;;;;;;;;;;2070288;28;20030;-74
2021/10/30 01:37:31;;;;;;;22.83;17.98;;;;;;;;;;2072808;28;20073;-75
2021/10/30 01:38:50;;;;;;;24.67;18.42;;;;;;;;;;2071940;28;20022;-75
2021/10/30 01:40:09;;;;;;;23.15;18.55;;;;;;;;;;2072025;28;20057;-75
2021/10/30 01:41:28;;;;;;;25.20;19.20;;;;;;;;;;2069147;28;20038;-75
2021/10/30 01:42:54;;;;;;;25.38;19.08;;;;;;;;;;2079816;28;20057;-75
2021/10/30 01:44:13;;;;;;;25.45;18.63;;;;;;;;;;2072758;28;20440;-75
2021/10/30 01:45:32;;;;;;;24.23;17.80;;;;;;;;;;2075374;28;20537;-75
2021/10/30 01:46:55;;;;;;;24.85;18.73;;;;;;;;;;2072019;28;20510;-75
2021/10/30 01:48:14;;;;;;;23.83;18.65;;;;;;;;;;2077502;28;20554;-75
2021/10/30 01:49:33;;;;;;;24.45;19.15;;;;;;;;;;2077244;28;20474;-74
2021/10/30 01:50:52;;;;;;;22.17;18.05;;;;;;;;;;2074431;28;20030;-75
2021/10/30 01:52:10;;;;;;;21.25;17.95;;;;;;;;;;2071474;28;20038;-75
2021/10/30 01:53:29;;;;;;;25.23;18.95;;;;;;;;;;2071150;28;20097;-75
2021/10/30 01:54:48;;;;;;;22.40;17.88;;;;;;;;;;2071380;28;20117;-75
2021/10/30 01:56:07;;;;;;;21.30;17.70;;;;;;;;;;2071356;28;20626;-74
2021/10/30 01:57:26;;;;;;;24.85;18.40;;;;;;;;;;2072269;28;20022;-75
2021/10/30 01:58:45;;;;;;;24.23;18.95;;;;;;;;;;2071220;28;20105;-75
2021/10/30 02:00:05;;;;;;;24.13;18.08;;;;;;;;;;2072968;28;20023;-76
2021/10/30 02:01:24;;;;;;;23.88;18.55;;;;;;;;;;2071090;28;20034;-76
2021/10/30 02:02:43;;;;;;;24.35;19.48;;;;;;;;;;2066096;28;20034;-75
2021/10/30 02:04:03;;;;;;;23.13;18.17;;;;;;;;;;2070241;28;20033;-75
2021/10/30 02:05:22;;;;;;;20.67;17.02;;;;;;;;;;2071149;28;20037;-75
2021/10/30 02:06:41;;;;;;;22.77;18.05;;;;;;;;;;2070377;28;20470;-73
2021/10/30 02:08:00;;;;;;;25.67;18.88;;;;;;;;;;2064009;28;20076;-76
2021/10/30 02:09:18;;;;;;;22.60;17.83;;;;;;;;;;2071947;28;20129;-75
2021/10/30 02:10:37;;;;;;;25.00;18.80;;;;;;;;;;2072078;28;20034;-74
2021/10/30 02:11:56;;;;;;;22.90;18.08;;;;;;;;;;2070836;28;20041;-75
2021/10/30 02:13:15;;;;;;;21.80;17.88;;;;;;;;;;2070610;28;20039;-74
2021/10/30 02:14:34;;;;;;;22.25;17.58;;;;;;;;;;2070675;28;20029;-74
2021/10/30 02:15:53;;;;;;;24.65;17.70;;;;;;;;;;2072170;28;20027;-74
2021/10/30 02:17:12;;;;;;;25.15;18.65;;;;;;;;;;2071819;28;20026;-72
2021/10/30 02:18:31;;;;;;;23.33;18.63;;;;;;;;;;2072218;28;20064;-75
2021/10/30 02:19:50;;;;;;;23.17;18.42;;;;;;;;;;2071673;28;20030;-75
2021/10/30 02:21:09;;;;;;;22.95;17.80;;;;;;;;;;2071758;28;20026;-75
2021/10/30 02:22:27;;;;;;;22.52;17.40;;;;;;;;;;2069155;28;20029;-75
2021/10/30 02:23:46;;;;;;;20.90;16.95;;;;;;;;;;2070483;28;20129;-75
2021/10/30 02:25:06;;;;;;;22.42;17.48;;;;;;;;;;2069516;28;20030;-75
2021/10/30 02:26:25;;;;;;;22.90;17.75;;;;;;;;;;2068880;28;20034;-74
2021/10/30 02:27:44;;;;;;;22.48;17.73;;;;;;;;;;2072142;28;20061;-74
2021/10/30 02:29:03;;;;;;;21.65;17.42;;;;;;;;;;2070970;28;20049;-74
2021/10/30 02:30:22;;;;;;;21.63;17.27;;;;;;;;;;2071410;28;20038;-74
2021/10/30 02:31:41;;;;;;;23.17;17.02;;;;;;;;;;2067291;28;20121;-74
2021/10/30 02:33:00;;;;;;;20.85;16.73;;;;;;;;;;2067302;28;20129;-74
2021/10/30 02:34:19;;;;;;;23.50;18.38;;;;;;;;;;2069650;28;20022;-73
2021/10/30 02:35:38;;;;;;;21.75;17.13;;;;;;;;;;2072599;28;20113;-75
2021/10/30 02:36:57;;;;;;;23.15;17.50;;;;;;;;;;2072524;28;20026;-76
2021/10/30 02:38:16;;;;;;;23.38;17.73;;;;;;;;;;2070732;28;20057;-75
2021/10/30 02:39:35;;;;;;;22.02;17.30;;;;;;;;;;2078902;28;20030;-75
2021/10/30 02:40:54;;;;;;;22.13;17.42;;;;;;;;;;2072344;28;20038;-74
2021/10/30 02:42:13;;;;;;;20.65;16.95;;;;;;;;;;2068345;28;20073;-74
2021/10/30 02:43:32;;;;;;;20.88;15.93;;;;;;;;;;2070276;28;20034;-74
2021/10/30 02:44:51;;;;;;;22.25;17.05;;;;;;;;;;2072287;28;20025;-75
2021/10/30 02:46:10;;;;;;;21.33;16.88;;;;;;;;;;2073164;28;20109;-75
2021/10/30 02:47:29;;;;;;;20.63;17.27;;;;;;;;;;2072328;28;20499;-75
2021/10/30 02:48:48;;;;;;;23.08;17.10;;;;;;;;;;2071889;28;20033;-74
2021/10/30 02:50:07;;;;;;;19.67;16.30;;;;;;;;;;2068711;28;20029;-73
2021/10/30 02:51:26;;;;;;;22.30;17.83;;;;;;;;;;2072823;28;20082;-73
2021/10/30 02:52:45;;;;;;;21.00;16.63;;;;;;;;;;2072074;28;20406;-75
2021/10/30 02:54:04;;;;;;;23.38;16.55;;;;;;;;;;2078328;28;20052;-72
2021/10/30 02:55:23;;;;;;;21.02;16.42;;;;;;;;;;2069277;28;20026;-75
2021/10/30 02:56:43;;;;;;;22.90;17.67;;;;;;;;;;2067581;28;20116;-74
2021/10/30 02:58:02;;;;;;;19.30;16.38;;;;;;;;;;2071718;28;20104;-74
2021/10/30 02:59:21;;;;;;;21.50;17.10;;;;;;;;;;2066825;28;20030;-75
2021/10/30 03:00:40;;;;;;;22.00;16.58;;;;;;;;;;2067853;28;20038;-73
2021/10/30 03:01:59;;;;;;;21.80;16.17;;;;;;;;;;2072066;28;20030;-74
2021/10/30 03:03:18;;;;;;;19.98;16.02;;;;;;;;;;2078423;28;20029;-74
2021/10/30 03:04:36;;;;;;;20.75;16.30;;;;;;;;;;2073930;28;20034;-75
2021/10/30 03:05:55;;;;;;;21.02;16.60;;;;;;;;;;2070709;28;20494;-74
2021/10/30 03:07:14;;;;;;;20.25;16.40;;;;;;;;;;2071255;28;20042;-73
2021/10/30 03:08:34;;;;;;;20.35;15.93;;;;;;;;;;2073391;28;20034;-74
2021/10/30 03:09:52;;;;;;;21.02;15.95;;;;;;;;;;2072059;28;20038;-73
2021/10/30 03:11:11;;;;;;;19.88;16.15;;;;;;;;;;2074154;28;20065;-75
2021/10/30 03:12:30;;;;;;;20.75;16.25;;;;;;;;;;2061957;28;20538;-74
2021/10/30 03:13:49;;;;;;;18.65;15.50;;;;;;;;;;2067492;28;20486;-73
2021/10/30 03:15:08;;;;;;;19.65;16.00;;;;;;;;;;2071384;28;20022;-74
2021/10/30 03:16:27;;;;;;;20.88;16.27;;;;;;;;;;2072789;28;20029;-73
2021/10/30 03:17:46;;;;;;;18.50;14.25;;;;;;;;;;2073831;28;20026;-74
2021/10/30 03:19:05;;;;;;;19.30;15.77;;;;;;;;;;2081035;28;20021;-74
2021/10/30 03:20:24;;;;;;;19.33;15.90;;;;;;;;;;2075130;28;20018;-73
2021/10/30 03:21:43;;;;;;;20.30;15.95;;;;;;;;;;2081680;28;20413;-75
2021/10/30 03:23:01;;;;;;;18.70;15.27;;;;;;;;;;2074972;28;20030;-72
2021/10/30 03:24:21;;;;;;;21.52;16.77;;;;;;;;;;2068679;28;20038;-75
2021/10/30 03:25:40;;;;;;;20.83;16.15;;;;;;;;;;2080134;28;20029;-75
2021/10/30 03:26:59;;;;;;;21.67;15.98;;;;;;;;;;2072973;28;20029;-74
2021/10/30 03:28:18;;;;;;;21.25;17.10;;;;;;;;;;2071022;28;20057;-73
2021/10/30 03:29:37;;;;;;;22.30;16.77;;;;;;;;;;2068060;28;20494;-74
2021/10/30 03:30:55;;;;;;;22.92;16.10;;;;;;;;;;2069769;28;20046;-74
2021/10/30 03:32:15;;;;;;;21.55;15.98;;;;;;;;;;2074049;28;20033;-75
2021/10/30 03:33:34;;;;;;;20.80;15.70;;;;;;;;;;2073931;28;20025;-75
2021/10/30 03:34:52;;;;;;;20.95;16.17;;;;;;;;;;2073279;28;20026;-72
2021/10/30 03:36:11;;;;;;;20.67;16.33;;;;;;;;;;2072685;28;20438;-74
2021/10/30 03:37:35;;;;;;;21.52;15.95;;;;;;;;;;2069609;28;20146;-73
2021/10/30 03:38:54;;;;;;;21.92;16.48;;;;;;;;;;2072338;28;20022;-74
2021/10/30 03:40:13;;;;;;;21.55;16.67;;;;;;;;;;2069861;28;20026;-76
2021/10/30 03:41:33;;;;;;;22.10;16.52;;;;;;;;;;2077166;28;20505;-75
2021/10/30 03:42:51;;;;;;;22.73;16.35;;;;;;;;;;2074175;28;20038;-74
2021/10/30 03:44:10;;;;;;;19.85;16.10;;;;;;;;;;2073176;28;20042;-74
2021/10/30 03:45:29;;;;;;;21.95;16.33;;;;;;;;;;2072405;28;20112;-74
2021/10/30 03:46:48;;;;;;;22.05;16.65;;;;;;;;;;2078718;28;20029;-75
2021/10/30 03:48:08;;;;;;;20.55;15.90;;;;;;;;;;2071904;28;20042;-74
2021/10/30 03:49:26;;;;;;;21.20;16.50;;;;;;;;;;2069040;28;21039;-75
2021/10/30 03:50:45;;;;;;;21.13;16.23;;;;;;;;;;2072424;28;20030;-75
2021/10/30 03:52:04;;;;;;;22.00;16.42;;;;;;;;;;2079028;28;20527;-76
2021/10/30 03:53:23;;;;;;;20.35;16.17;;;;;;;;;;2079035;28;20030;-74
2021/10/30 03:54:42;;;;;;;22.40;17.70;;;;;;;;;;2076020;28;20478;-75
2021/10/30 03:56:02;;;;;;;25.27;16.70;;;;;;;;;;2072116;28;20029;-76
2021/10/30 03:57:21;;;;;;;22.17;15.90;;;;;;;;;;2070421;28;20220;-75
2021/10/30 03:58:40;;;;;;;22.20;16.67;;;;;;;;;;2071929;28;20282;-75
2021/10/30 03:59:59;;;;;;;20.42;16.30;;;;;;;;;;2072109;28;20033;-75
2021/10/30 04:01:18;;;;;;;21.20;16.20;;;;;;;;;;2077723;28;20108;-75
2021/10/30 04:02:37;;;;;;;24.40;16.13;;;;;;;;;;2067200;28;20034;-74
2021/10/30 04:03:56;;;;;;;19.42;16.05;;;;;;;;;;2072601;28;20034;-74
2021/10/30 04:05:15;;;;;;;21.70;17.23;;;;;;;;;;2073932;28;20449;-75
2021/10/30 04:06:34;;;;;;;23.05;16.75;;;;;;;;;;2073156;28;20030;-75
2021/10/30 04:07:53;;;;;;;20.20;16.13;;;;;;;;;;2068637;28;20494;-75
2021/10/30 04:09:12;;;;;;;21.17;16.83;;;;;;;;;;2071426;28;20038;-75
2021/10/30 04:10:31;;;;;;;24.05;16.77;;;;;;;;;;2067644;28;20038;-76
2021/10/30 04:11:53;;;;;;;24.42;17.08;;;;;;;;;;2078135;28;20034;-76
2021/10/30 04:13:11;;;;;;;23.60;17.63;;;;;;;;;;2069416;28;20326;-77
2021/10/30 04:14:30;;;;;;;25.13;16.45;;;;;;;;;;2071307;28;20026;-77
2021/10/30 04:15:49;;;;;;;22.33;16.40;;;;;;;;;;2072227;28;20030;-76
2021/10/30 04:17:08;;;;;;;21.98;16.88;;;;;;;;;;2072097;28;20385;-77
2021/10/30 04:18:27;;;;;;;21.48;16.45;;;;;;;;;;2071691;28;20636;-77
2021/10/30 04:19:46;;;;;;;21.30;16.30;;;;;;;;;;2071742;28;20482;-77
2021/10/30 04:21:06;;;;;;;24.23;16.48;;;;;;;;;;2071328;28;20034;-77
2021/10/30 04:22:25;;;;;;;22.85;16.95;;;;;;;;;;2071494;28;20022;-76
2021/10/30 04:23:43;;;;;;;24.52;17.63;;;;;;;;;;2070999;28;20081;-75
2021/10/30 04:25:03;;;;;;;23.10;17.38;;;;;;;;;;2080010;28;20013;-76
2021/10/30 04:26:22;;;;;;;22.42;17.52;;;;;;;;;;2075055;28;20022;-74
2021/10/30 04:27:41;;;;;;;22.98;16.77;;;;;;;;;;2072633;28;20042;-76
2021/10/30 04:29:00;;;;;;;22.33;16.83;;;;;;;;;;2071469;28;20042;-76
2021/10/30 04:30:19;;;;;;;24.13;17.52;;;;;;;;;;2067984;28;20022;-77
2021/10/30 04:31:37;;;;;;;19.83;16.52;;;;;;;;;;2070557;28;20038;-76
2021/10/30 04:32:56;;;;;;;23.00;16.70;;;;;;;;;;2072558;28;20053;-75
2021/10/30 04:34:19;;;;;;;23.70;17.20;;;;;;;;;;2070137;28;20029;-74
2021/10/30 04:35:40;;;;;;;24.65;17.45;;;;;;;;;;2067073;28;20113;-77
2021/10/30 04:37:02;;;;;;;23.38;16.60;;;;;;;;;;2073259;28;20026;-76
2021/10/30 04:38:22;;;;;;;23.00;17.00;;;;;;;;;;2072598;28;20042;-76
2021/10/30 04:39:48;;;;;;;24.75;18.05;;;;;;;;;;2077438;28;20472;-74
2021/10/30 04:41:07;;;;;;;24.55;17.08;;;;;;;;;;2071882;28;20053;-75
2021/10/30 04:42:27;;;;;;;23.00;17.40;;;;;;;;;;2073124;28;20029;-74
2021/10/30 04:43:46;;;;;;;21.42;16.20;;;;;;;;;;2072789;28;20141;-75
2021/10/30 04:45:06;;;;;;;25.17;17.30;;;;;;;;;;2072069;28;20026;-75
2021/10/30 04:46:25;;;;;;;23.27;17.38;;;;;;;;;;2072059;28;20047;-75
2021/10/30 04:47:44;;;;;;;21.90;17.05;;;;;;;;;;2071866;28;20113;-76
2021/10/30 04:49:03;;;;;;;24.50;18.00;;;;;;;;;;2071124;28;20022;-76
2021/10/30 04:50:22;;;;;;;24.23;17.50;;;;;;;;;;2076599;28;20037;-76
2021/10/30 04:51:41;;;;;;;23.83;17.73;;;;;;;;;;2076107;28;20029;-74
2021/10/30 04:53:00;;;;;;;23.67;17.73;;;;;;;;;;2068880;28;20475;-74
2021/10/30 04:54:19;;;;;;;24.33;17.92;;;;;;;;;;2069261;28;20026;-74
2021/10/30 04:55:38;;;;;;;25.00;18.02;;;;;;;;;;2068482;28;20034;-76
2021/10/30 04:56:56;;;;;;;24.02;17.65;;;;;;;;;;2077915;28;20038;-78
2021/10/30 04:58:15;;;;;;;23.42;17.45;;;;;;;;;;2070079;28;20039;-77
2021/10/30 04:59:34;;;;;;;25.65;17.63;;;;;;;;;;2068855;28;20430;-76
2021/10/30 05:00:53;;;;;;;25.38;17.88;;;;;;;;;;2070558;28;21191;-75
2021/10/30 05:02:13;;;;;;;25.23;18.05;;;;;;;;;;2068524;28;20378;-75
2021/10/30 05:03:31;;;;;;;24.30;17.40;;;;;;;;;;2068526;28;21155;-74
2021/10/30 05:04:50;;;;;;;29.13;18.20;;;;;;;;;;2068862;28;20798;-76
2021/10/30 05:06:10;;;;;;;25.25;17.45;;;;;;;;;;2071455;28;20033;-75
2021/10/30 05:07:29;;;;;;;25.42;17.55;;;;;;;;;;2067703;28;20046;-77
2021/10/30 05:08:48;;;;;;;26.23;18.45;;;;;;;;;;2068265;28;20510;-75
2021/10/30 05:10:07;;;;;;;25.10;18.63;;;;;;;;;;2071118;28;20030;-74
2021/10/30 05:11:26;;;;;;;26.38;18.48;;;;;;;;;;2067906;28;20026;-75
2021/10/30 05:12:45;;;;;;;25.60;17.88;;;;;;;;;;2075035;28;20168;-76
2021/10/30 05:14:04;;;;;;;28.23;18.83;;;;;;;;;;2073766;28;20061;-75
2021/10/30 05:15:23;;;;;;;26.38;18.35;;;;;;;;;;2070955;28;20029;-77
2021/10/30 05:16:41;;;;;;;25.83;18.70;;;;;;;;;;2069865;28;20502;-77
2021/10/30 05:18:00;;;;;;;26.45;18.35;;;;;;;;;;2072006;28;20038;-75
2021/10/30 05:19:19;;;;;;;23.80;17.58;;;;;;;;;;2066426;28;20598;-74
2021/10/30 05:20:38;;;;;;;24.98;17.67;;;;;;;;;;2071040;28;20116;-75
2021/10/30 05:21:57;;;;;;;25.08;17.80;;;;;;;;;;2069904;28;20029;-76
2021/10/30 05:23:17;;;;;;;21.67;16.65;;;;;;;;;;2068489;28;20033;-75
2021/10/30 05:24:36;;;;;;;28.50;18.98;;;;;;;;;;2067321;28;20462;-75
2021/10/30 05:25:55;;;;;;;26.15;17.67;;;;;;;;;;2065895;28;20035;-76
2021/10/30 05:27:15;;;;;;;26.33;17.77;;;;;;;;;;2067897;28;20026;-74
2021/10/30 05:28:35;;;;;;;24.85;17.55;;;;;;;;;;2071022;28;20089;-75
2021/10/30 05:29:54;;;;;;;25.50;18.48;;;;;;;;;;2071933;28;20026;-74
2021/10/30 05:31:12;;;;;;;25.45;17.70;;;;;;;;;;2070231;28;20030;-74
2021/10/30 05:32:31;;;;;;;26.08;18.63;;;;;;;;;;2068061;28;20466;-74
2021/10/30 05:33:50;;;;;;;26.08;17.85;;;;;;;;;;2071836;28;20061;-74
2021/10/30 05:35:09;;;;;;;28.45;18.85;;;;;;;;;;2068626;28;20900;-75
2021/10/30 05:36:30;;;;;;;25.27;18.42;;;;;;;;;;2069894;28;20029;-75
2021/10/30 05:37:49;;;;;;;25.63;17.80;;;;;;;;;;2065981;28;20050;-74
2021/10/30 05:39:14;;;;;;;30.52;18.85;;;;;;;;;;2074834;28;20033;-75
2021/10/30 05:40:34;;;;;;;24.27;17.90;;;;;;;;;;2072337;28;20030;-74
2021/10/30 05:41:53;;;;;;;25.35;18.40;;;;;;;;;;2072126;28;20486;-74
2021/10/30 05:43:12;;;;;;;25.55;17.63;;;;;;;;;;2071597;28;20037;-74
2021/10/30 05:44:32;;;;;;;25.25;18.25;;;;;;;;;;2065247;28;20038;-72
2021/10/30 05:45:51;;;;;;;25.25;17.63;;;;;;;;;;2070553;28;20022;-74
2021/10/30 05:47:10;;;;;;;24.63;17.55;;;;;;;;;;2068752;28;20945;-74
2021/10/30 05:48:29;;;;;;;30.70;18.88;;;;;;;;;;2069199;28;20037;-74
2021/10/30 05:49:48;;;;;;;24.00;17.50;;;;;;;;;;2070751;28;20437;-75
2021/10/30 05:51:08;;;;;;;27.38;18.88;;;;;;;;;;2070706;28;20049;-72
2021/10/30 05:52:27;;;;;;;25.95;18.92;;;;;;;;;;2071393;28;20042;-74
2021/10/30 05:53:46;;;;;;;27.73;19.25;;;;;;;;;;2072260;28;20062;-72
2021/10/30 05:55:05;;;;;;;26.95;18.48;;;;;;;;;;2070702;28;20038;-74
2021/10/30 05:56:24;;;;;;;27.70;18.77;;;;;;;;;;2068752;28;20123;-75
2021/10/30 05:57:43;;;;;;;24.45;17.98;;;;;;;;;;2071725;28;20065;-73
2021/10/30 05:59:02;;;;;;;26.38;18.23;;;;;;;;;;2069628;28;20026;-73
2021/10/30 06:00:21;;;;;;;30.15;20.13;;;;;;;;;;2067177;28;20033;-74
2021/10/30 06:01:39;;;;;;;26.33;18.83;;;;;;;;;;2063745;28;20071;-74
2021/10/30 06:02:59;;;;;;;29.30;20.05;;;;;;;;;;2067029;28;20117;-75
2021/10/30 06:04:18;;;;;;;29.27;19.23;;;;;;;;;;2065068;28;20037;-75
2021/10/30 06:05:36;;;;;;;26.02;18.80;;;;;;;;;;2064147;28;20050;-75
2021/10/30 06:06:55;;;;;;;27.50;19.23;;;;;;;;;;2068352;28;20037;-74
2021/10/30 06:08:14;;;;;;;27.83;19.83;;;;;;;;;;2066635;28;20042;-73
2021/10/30 06:09:33;;;;;;;27.50;19.05;;;;;;;;;;2071655;28;20022;-75
2021/10/30 06:10:53;;;;;;;29.48;19.65;;;;;;;;;;2071581;28;20173;-76
2021/10/30 06:12:12;;;;;;;28.23;19.27;;;;;;;;;;2072190;28;20557;-75
2021/10/30 06:13:31;;;;;;;28.13;19.00;;;;;;;;;;2069975;28;20487;-76
2021/10/30 06:14:50;;;;;;;31.35;20.23;;;;;;;;;;2071177;28;20026;-73
2021/10/30 06:16:09;;;;;;;28.15;19.10;;;;;;;;;;2070522;28;20038;-74
2021/10/30 06:17:28;;;;;;;26.85;18.38;;;;;;;;;;2071765;28;20026;-73
2021/10/30 06:18:47;;;;;;;28.95;19.38;;;;;;;;;;2070266;28;20609;-74
2021/10/30 06:20:06;;;;;;;25.13;18.35;;;;;;;;;;2072984;28;20038;-76
2021/10/30 06:21:27;;;;;;;30.45;20.15;;;;;;;;;;2072573;28;20034;-75
2021/10/30 06:22:46;;;;;;;27.05;19.23;;;;;;;;;;2073368;28;20491;-76
2021/10/30 06:24:04;;;;;;;30.17;19.25;;;;;;;;;;2076582;28;20493;-74
2021/10/30 06:25:23;;;;;;;29.95;20.42;;;;;;;;;;2070846;28;20034;-73
2021/10/30 06:26:42;;;;;;;28.30;20.05;;;;;;;;;;2072889;28;20038;-73
2021/10/30 06:28:01;;;;;;;29.27;20.42;;;;;;;;;;2073955;28;20113;-73
2021/10/30 06:29:20;;;;;;;28.77;20.27;;;;;;;;;;2072763;28;20026;-73
2021/10/30 06:30:39;;;;;;;29.23;19.98;;;;;;;;;;2071746;28;20030;-72
2021/10/30 06:31:58;;;;;;;29.17;18.88;;;;;;;;;;2070711;28;20502;-74
2021/10/30 06:33:17;;;;;;;30.13;20.73;;;;;;;;;;2070331;28;20030;-74
2021/10/30 06:34:36;;;;;;;28.80;20.23;;;;;;;;;;2072524;28;20026;-73
2021/10/30 06:35:55;;;;;;;32.45;20.70;;;;;;;;;;2071616;28;20022;-73
2021/10/30 06:37:14;;;;;;;28.10;19.88;;;;;;;;;;2069275;28;20490;-76
2021/10/30 06:38:32;;;;;;;27.63;19.98;;;;;;;;;;2077195;28;20033;-72
2021/10/30 06:39:52;;;;;;;30.20;19.83;;;;;;;;;;2072337;28;20041;-74
2021/10/30 06:41:12;;;;;;;30.02;19.45;;;;;;;;;;2071769;28;20038;-73
2021/10/30 06:42:31;;;;;;;30.80;20.85;;;;;;;;;;2073649;28;20022;-73
2021/10/30 06:43:50;;;;;;;30.77;19.73;;;;;;;;;;2070860;28;20026;-73
2021/10/30 06:45:09;;;;;;;29.40;20.10;;;;;;;;;;2070736;28;20022;-73
2021/10/30 06:46:28;;;;;;;29.50;20.17;;;;;;;;;;2078207;28;20047;-74
2021/10/30 06:47:47;;;;;;;30.40;20.85;;;;;;;;;;2076238;28;20054;-73
2021/10/30 06:49:10;;;;;;;31.75;20.67;;;;;;;;;;2071523;28;20030;-73
2021/10/30 06:50:31;;;;;;;31.88;21.50;;;;;;;;;;2072009;28;20030;-73
2021/10/30 06:51:51;;;;;;;27.13;19.55;;;;;;;;;;2074513;28;20034;-72
2021/10/30 06:53:10;;;;;;;31.63;21.92;;;;;;;;;;2072932;28;20026;-72
2021/10/30 06:54:29;;;;;;;32.35;21.42;;;;;;;;;;2076852;28;20033;-72
2021/10/30 06:55:48;;;;;;;31.10;20.83;;;;;;;;;;2079243;28;20099;-73
2021/10/30 06:57:08;;;;;;;29.77;19.83;;;;;;;;;;2072554;28;20022;-72
2021/10/30 06:58:30;;;;;;;30.65;20.90;;;;;;;;;;2069642;28;20026;-72
2021/10/30 06:59:49;;;;;;;31.30;21.13;;;;;;;;;;2071800;28;20038;-73
2021/10/30 07:01:08;;;;;;;28.95;20.50;;;;;;;;;;2071812;28;20034;-72
2021/10/30 07:02:27;;;;;;;32.67;21.05;;;;;;;;;;2073115;28;20018;-73
2021/10/30 07:03:47;;;;;;;32.33;20.88;;;;;;;;;;2071867;28;20038;-72
2021/10/30 07:05:07;;;;;;;33.38;21.38;;;;;;;;;;2072651;28;20022;-73
2021/10/30 07:06:26;;;;;;;31.35;20.77;;;;;;;;;;2071880;28;20030;-71
2021/10/30 07:07:45;;;;;;;31.25;20.00;;;;;;;;;;2071792;28;20089;-72
2021/10/30 07:09:03;;;;;;;30.88;21.00;;;;;;;;;;2071625;28;20105;-74
2021/10/30 07:10:22;;;;;;;31.58;20.55;;;;;;;;;;2071302;28;20030;-71
2021/10/30 07:11:44;;;;;;;30.23;19.90;;;;;;;;;;2071763;28;20392;-73
2021/10/30 07:13:03;;;;;;;30.13;19.83;;;;;;;;;;2070516;28;20501;-78
2021/10/30 07:14:22;;;;;;;31.75;19.92;;;;;;;;;;2073174;28;20486;-72
2021/10/30 07:15:41;;;;;;;32.13;19.70;;;;;;;;;;2070834;28;20026;-72
2021/10/30 07:17:00;;;;;;;35.17;21.02;;;;;;;;;;2068328;28;20030;-71
2021/10/30 07:18:19;;;;;;;35.67;21.13;;;;;;;;;;2069066;28;20561;-72
2021/10/30 07:19:37;;;;;;;36.47;20.70;;;;;;;;;;2070832;28;20482;-72
2021/10/30 07:20:56;;;;;;;33.92;21.58;;;;;;;;;;2072566;28;20122;-71
2021/10/30 07:22:15;;;;;;;36.40;20.90;;;;;;;;;;2077336;28;20049;-72
2021/10/30 07:23:35;;;;;;;33.90;21.42;;;;;;;;;;2076466;28;20018;-71
2021/10/30 07:24:54;;;;;;;36.45;22.38;;;;;;;;;;2073463;28;20022;-70
2021/10/30 07:26:12;;;;;;;35.03;22.27;;;;;;;;;;2072908;28;20026;-74
2021/10/30 07:27:31;;;;;;;35.78;21.55;;;;;;;;;;2071171;28;20046;-75
2021/10/30 07:28:50;;;;;;;39.95;21.95;;;;;;;;;;2072557;28;20053;-75
2021/10/30 07:30:10;;;;;;;36.58;22.85;;;;;;;;;;2071790;28;20034;-75
2021/10/30 07:31:29;;;;;;;38.75;23.02;;;;;;;;;;2069827;28;20018;-75
2021/10/30 07:32:52;;;;;;;37.22;23.65;;;;;;;;;;2072239;28;20061;-78
2021/10/30 07:34:11;;;;;;;37.75;23.73;;;;;;;;;;2071957;28;20461;-75
2021/10/30 07:35:29;;;;;;;40.67;22.67;;;;;;;;;;2071668;28;20029;-76
2021/10/30 07:36:48;;;;;;;40.92;24.15;;;;;;;;;;2072051;28;20525;-75
2021/10/30 07:38:07;;;;;;;39.10;24.55;;;;;;;;;;2072799;28;20041;-75
2021/10/30 07:39:26;;;;;;;42.17;25.05;;;;;;;;;;2072477;28;20030;-75
2021/10/30 07:40:45;;;;;;;40.45;24.25;;;;;;;;;;2072117;28;20120;-74